sensor_id;sensor_type;location;lat;lon;timestamp;P1;durP1;ratioP1;P2;durP2;ratioP2
3567;SDS011;1798;48.486;9.232;2023-04-06T00:00:03;21.13;;;12.20;;
3567;SDS011;1798;48.486;9.232;2023-04-06T00:02:33;26.20;;;13.52;;
3567;SDS011;1798;48.486;9.232;2023-04-06T00:05:00;23.95;;;13.68;;
3567;SDS011;1798;48.486;9.232;2023-04-06T00:07:27;24.50;;;12.70;;
3567;SDS011;1798;48.486;9.232;2023-04-06T00:09:56;21.73;;;13.02;;
3567;SDS011;1798;48.486;9.232;2023-04-06T00:12:23;23.37;;;12.40;;
3567;SDS011;1798;48.486;9.232;2023-04-06T00:14:49;22.83;;;12.95;;
3567;SDS011;1798;48.486;9.232;2023-04-06T00:17:17;20.05;;;12.63;;
3567;SDS011;1798;48.486;9.232;2023-04-06T00:19:44;24.45;;;13.40;;
3567;SDS011;1798;48.486;9.232;2023-04-06T00:22:11;22.30;;;12.13;;
3567;SDS011;1798;48.486;9.232;2023-04-06T00:24:37;18.67;;;11.95;;
3567;SDS011;1798;48.486;9.232;2023-04-06T00:27:06;22.88;;;13.00;;
3567;SDS011;1798;48.486;9.232;2023-04-06T00:29:33;24.75;;;12.30;;
3567;SDS011;1798;48.486;9.232;2023-04-06T00:32:00;28.50;;;13.27;;
3567;SDS011;1798;48.486;9.232;2023-04-06T00:34:27;23.35;;;13.40;;
3567;SDS011;1798;48.486;9.232;2023-04-06T00:36:53;21.20;;;13.80;;
3567;SDS011;1798;48.486;9.232;2023-04-06T00:39:20;22.25;;;13.52;;
3567;SDS011;1798;48.486;9.232;2023-04-06T00:41:49;23.75;;;12.80;;
3567;SDS011;1798;48.486;9.232;2023-04-06T00:44:19;19.13;;;12.50;;
3567;SDS011;1798;48.486;9.232;2023-04-06T00:46:46;23.90;;;13.17;;
3567;SDS011;1798;48.486;9.232;2023-04-06T00:49:13;27.33;;;13.07;;
3567;SDS011;1798;48.486;9.232;2023-04-06T00:51:40;20.30;;;12.10;;
3567;SDS011;1798;48.486;9.232;2023-04-06T00:54:07;26.20;;;14.32;;
3567;SDS011;1798;48.486;9.232;2023-04-06T00:56:34;19.70;;;12.05;;
3567;SDS011;1798;48.486;9.232;2023-04-06T00:59:01;21.93;;;13.40;;
3567;SDS011;1798;48.486;9.232;2023-04-06T01:01:29;21.65;;;13.00;;
3567;SDS011;1798;48.486;9.232;2023-04-06T01:03:57;21.77;;;12.07;;
3567;SDS011;1798;48.486;9.232;2023-04-06T01:06:24;22.45;;;13.45;;
3567;SDS011;1798;48.486;9.232;2023-04-06T01:08:51;21.73;;;12.80;;
3567;SDS011;1798;48.486;9.232;2023-04-06T01:11:18;24.63;;;13.30;;
3567;SDS011;1798;48.486;9.232;2023-04-06T01:13:45;23.50;;;12.82;;
3567;SDS011;1798;48.486;9.232;2023-04-06T01:16:12;23.33;;;12.95;;
3567;SDS011;1798;48.486;9.232;2023-04-06T01:18:40;23.08;;;13.30;;
3567;SDS011;1798;48.486;9.232;2023-04-06T01:21:08;24.98;;;13.27;;
3567;SDS011;1798;48.486;9.232;2023-04-06T01:23:42;22.20;;;12.80;;
3567;SDS011;1798;48.486;9.232;2023-04-06T01:26:10;21.55;;;14.00;;
3567;SDS011;1798;48.486;9.232;2023-04-06T01:28:37;25.00;;;13.00;;
3567;SDS011;1798;48.486;9.232;2023-04-06T01:31:04;21.70;;;13.68;;
3567;SDS011;1798;48.486;9.232;2023-04-06T01:33:31;25.40;;;13.40;;
3567;SDS011;1798;48.486;9.232;2023-04-06T01:35:58;25.40;;;13.38;;
3567;SDS011;1798;48.486;9.232;2023-04-06T01:38:25;26.50;;;12.93;;
3567;SDS011;1798;48.486;9.232;2023-04-06T01:40:53;23.98;;;14.43;;
3567;SDS011;1798;48.486;9.232;2023-04-06T01:43:20;22.65;;;13.40;;
3567;SDS011;1798;48.486;9.232;2023-04-06T01:45:47;22.38;;;12.93;;
3567;SDS011;1798;48.486;9.232;2023-04-06T01:48:14;21.55;;;12.35;;
3567;SDS011;1798;48.486;9.232;2023-04-06T01:50:40;19.33;;;11.70;;
3567;SDS011;1798;48.486;9.232;2023-04-06T01:53:07;25.90;;;13.50;;
3567;SDS011;1798;48.486;9.232;2023-04-06T01:55:34;22.58;;;13.30;;
3567;SDS011;1798;48.486;9.232;2023-04-06T01:58:03;19.63;;;12.43;;
3567;SDS011;1798;48.486;9.232;2023-04-06T02:00:30;22.73;;;13.35;;
3567;SDS011;1798;48.486;9.232;2023-04-06T02:02:57;20.05;;;12.05;;
3567;SDS011;1798;48.486;9.232;2023-04-06T02:05:24;19.63;;;12.80;;
3567;SDS011;1798;48.486;9.232;2023-04-06T02:07:51;21.27;;;12.77;;
3567;SDS011;1798;48.486;9.232;2023-04-06T02:10:18;23.70;;;13.82;;
3567;SDS011;1798;48.486;9.232;2023-04-06T02:12:45;21.52;;;13.10;;
3567;SDS011;1798;48.486;9.232;2023-04-06T02:15:13;27.17;;;13.98;;
3567;SDS011;1798;48.486;9.232;2023-04-06T02:17:40;19.48;;;12.57;;
3567;SDS011;1798;48.486;9.232;2023-04-06T02:20:07;22.65;;;13.00;;
3567;SDS011;1798;48.486;9.232;2023-04-06T02:22:35;23.80;;;13.80;;
3567;SDS011;1798;48.486;9.232;2023-04-06T02:25:02;29.38;;;12.30;;
3567;SDS011;1798;48.486;9.232;2023-04-06T02:27:29;26.33;;;13.90;;
3567;SDS011;1798;48.486;9.232;2023-04-06T02:29:56;20.25;;;12.60;;
3567;SDS011;1798;48.486;9.232;2023-04-06T02:32:24;21.98;;;13.27;;
3567;SDS011;1798;48.486;9.232;2023-04-06T02:34:51;24.07;;;13.10;;
3567;SDS011;1798;48.486;9.232;2023-04-06T02:37:18;21.38;;;14.00;;
3567;SDS011;1798;48.486;9.232;2023-04-06T02:39:45;24.60;;;12.90;;
3567;SDS011;1798;48.486;9.232;2023-04-06T02:42:12;24.95;;;13.25;;
3567;SDS011;1798;48.486;9.232;2023-04-06T02:44:40;22.33;;;13.50;;
3567;SDS011;1798;48.486;9.232;2023-04-06T02:47:07;20.63;;;12.27;;
3567;SDS011;1798;48.486;9.232;2023-04-06T02:49:36;22.42;;;12.05;;
3567;SDS011;1798;48.486;9.232;2023-04-06T02:52:03;20.50;;;12.10;;
3567;SDS011;1798;48.486;9.232;2023-04-06T02:54:30;21.08;;;12.48;;
3567;SDS011;1798;48.486;9.232;2023-04-06T02:56:57;24.42;;;12.82;;
3567;SDS011;1798;48.486;9.232;2023-04-06T02:59:24;22.15;;;12.52;;
3567;SDS011;1798;48.486;9.232;2023-04-06T03:01:52;26.38;;;12.40;;
3567;SDS011;1798;48.486;9.232;2023-04-06T03:04:19;26.75;;;13.75;;
3567;SDS011;1798;48.486;9.232;2023-04-06T03:06:49;19.63;;;12.52;;
3567;SDS011;1798;48.486;9.232;2023-04-06T03:09:16;24.92;;;12.55;;
3567;SDS011;1798;48.486;9.232;2023-04-06T03:11:43;20.52;;;12.85;;
3567;SDS011;1798;48.486;9.232;2023-04-06T03:14:09;24.27;;;14.95;;
3567;SDS011;1798;48.486;9.232;2023-04-06T03:16:36;22.15;;;13.00;;
3567;SDS011;1798;48.486;9.232;2023-04-06T03:19:03;25.77;;;13.30;;
3567;SDS011;1798;48.486;9.232;2023-04-06T03:21:29;23.83;;;12.50;;
3567;SDS011;1798;48.486;9.232;2023-04-06T03:23:58;23.65;;;13.13;;
3567;SDS011;1798;48.486;9.232;2023-04-06T03:26:24;20.73;;;11.82;;
3567;SDS011;1798;48.486;9.232;2023-04-06T03:28:51;23.52;;;13.55;;
3567;SDS011;1798;48.486;9.232;2023-04-06T03:31:18;23.85;;;12.73;;
3567;SDS011;1798;48.486;9.232;2023-04-06T03:33:45;22.60;;;13.32;;
3567;SDS011;1798;48.486;9.232;2023-04-06T03:36:12;23.17;;;12.80;;
3567;SDS011;1798;48.486;9.232;2023-04-06T03:38:39;28.60;;;14.13;;
3567;SDS011;1798;48.486;9.232;2023-04-06T03:41:07;21.00;;;12.05;;
3567;SDS011;1798;48.486;9.232;2023-04-06T03:43:34;20.30;;;12.30;;
3567;SDS011;1798;48.486;9.232;2023-04-06T03:46:01;20.13;;;12.02;;
3567;SDS011;1798;48.486;9.232;2023-04-06T03:48:30;19.63;;;12.68;;
3567;SDS011;1798;48.486;9.232;2023-04-06T03:50:57;24.25;;;12.88;;
3567;SDS011;1798;48.486;9.232;2023-04-06T03:53:24;20.90;;;13.18;;
3567;SDS011;1798;48.486;9.232;2023-04-06T03:55:50;20.60;;;12.52;;
3567;SDS011;1798;48.486;9.232;2023-04-06T03:58:19;22.10;;;12.73;;
3567;SDS011;1798;48.486;9.232;2023-04-06T04:00:45;19.98;;;12.88;;
3567;SDS011;1798;48.486;9.232;2023-04-06T04:03:12;22.30;;;13.82;;
3567;SDS011;1798;48.486;9.232;2023-04-06T04:05:39;24.10;;;12.80;;
3567;SDS011;1798;48.486;9.232;2023-04-06T04:08:06;24.23;;;14.05;;
3567;SDS011;1798;48.486;9.232;2023-04-06T04:10:33;21.27;;;13.00;;
3567;SDS011;1798;48.486;9.232;2023-04-06T04:12:59;25.23;;;13.35;;
3567;SDS011;1798;48.486;9.232;2023-04-06T04:15:28;21.35;;;12.68;;
3567;SDS011;1798;48.486;9.232;2023-04-06T04:17:54;19.55;;;12.20;;
3567;SDS011;1798;48.486;9.232;2023-04-06T04:20:21;22.30;;;13.10;;
3567;SDS011;1798;48.486;9.232;2023-04-06T04:22:48;23.75;;;13.52;;
3567;SDS011;1798;48.486;9.232;2023-04-06T04:25:15;20.50;;;12.37;;
3567;SDS011;1798;48.486;9.232;2023-04-06T04:27:42;23.37;;;13.27;;
3567;SDS011;1798;48.486;9.232;2023-04-06T04:30:09;26.10;;;13.50;;
3567;SDS011;1798;48.486;9.232;2023-04-06T04:32:37;20.35;;;11.55;;
3567;SDS011;1798;48.486;9.232;2023-04-06T04:35:04;24.35;;;12.57;;
3567;SDS011;1798;48.486;9.232;2023-04-06T04:37:32;24.13;;;12.82;;
3567;SDS011;1798;48.486;9.232;2023-04-06T04:40:01;23.60;;;13.35;;
3567;SDS011;1798;48.486;9.232;2023-04-06T04:42:28;25.88;;;13.68;;
3567;SDS011;1798;48.486;9.232;2023-04-06T04:44:55;35.10;;;13.95;;
3567;SDS011;1798;48.486;9.232;2023-04-06T04:47:23;21.63;;;12.90;;
3567;SDS011;1798;48.486;9.232;2023-04-06T04:49:51;27.75;;;13.43;;
3567;SDS011;1798;48.486;9.232;2023-04-06T04:52:18;27.30;;;13.20;;
3567;SDS011;1798;48.486;9.232;2023-04-06T04:54:45;23.20;;;12.60;;
3567;SDS011;1798;48.486;9.232;2023-04-06T04:57:12;21.35;;;12.35;;
3567;SDS011;1798;48.486;9.232;2023-04-06T04:59:39;24.52;;;13.20;;
3567;SDS011;1798;48.486;9.232;2023-04-06T05:02:06;20.13;;;13.13;;
3567;SDS011;1798;48.486;9.232;2023-04-06T05:04:33;24.15;;;13.82;;
3567;SDS011;1798;48.486;9.232;2023-04-06T05:07:05;22.60;;;12.75;;
3567;SDS011;1798;48.486;9.232;2023-04-06T05:09:32;21.73;;;12.85;;
3567;SDS011;1798;48.486;9.232;2023-04-06T05:11:59;25.50;;;13.40;;
3567;SDS011;1798;48.486;9.232;2023-04-06T05:14:26;20.63;;;12.60;;
3567;SDS011;1798;48.486;9.232;2023-04-06T05:16:53;26.02;;;12.70;;
3567;SDS011;1798;48.486;9.232;2023-04-06T05:19:20;21.50;;;12.53;;
3567;SDS011;1798;48.486;9.232;2023-04-06T05:21:47;21.10;;;12.30;;
3567;SDS011;1798;48.486;9.232;2023-04-06T05:24:15;23.67;;;12.93;;
3567;SDS011;1798;48.486;9.232;2023-04-06T05:26:42;26.42;;;14.65;;
3567;SDS011;1798;48.486;9.232;2023-04-06T05:29:10;22.85;;;13.02;;
3567;SDS011;1798;48.486;9.232;2023-04-06T05:31:36;20.95;;;13.68;;
3567;SDS011;1798;48.486;9.232;2023-04-06T05:34:03;30.88;;;13.48;;
3567;SDS011;1798;48.486;9.232;2023-04-06T05:36:30;24.55;;;14.90;;
3567;SDS011;1798;48.486;9.232;2023-04-06T05:38:58;26.30;;;14.68;;
3567;SDS011;1798;48.486;9.232;2023-04-06T05:41:26;30.60;;;13.65;;
3567;SDS011;1798;48.486;9.232;2023-04-06T05:43:53;23.90;;;13.33;;
3567;SDS011;1798;48.486;9.232;2023-04-06T05:46:20;27.83;;;13.32;;
3567;SDS011;1798;48.486;9.232;2023-04-06T05:48:47;27.52;;;13.40;;
3567;SDS011;1798;48.486;9.232;2023-04-06T05:51:14;25.30;;;14.05;;
3567;SDS011;1798;48.486;9.232;2023-04-06T05:53:40;25.85;;;14.35;;
3567;SDS011;1798;48.486;9.232;2023-04-06T05:56:07;25.73;;;13.95;;
3567;SDS011;1798;48.486;9.232;2023-04-06T05:58:35;26.80;;;14.23;;
3567;SDS011;1798;48.486;9.232;2023-04-06T06:01:02;24.02;;;14.45;;
3567;SDS011;1798;48.486;9.232;2023-04-06T06:03:30;29.52;;;14.60;;
3567;SDS011;1798;48.486;9.232;2023-04-06T06:05:59;24.60;;;15.53;;
3567;SDS011;1798;48.486;9.232;2023-04-06T06:08:26;23.48;;;14.20;;
3567;SDS011;1798;48.486;9.232;2023-04-06T06:10:53;28.08;;;14.50;;
3567;SDS011;1798;48.486;9.232;2023-04-06T06:13:20;30.90;;;14.77;;
3567;SDS011;1798;48.486;9.232;2023-04-06T06:15:49;33.00;;;15.52;;
3567;SDS011;1798;48.486;9.232;2023-04-06T06:18:16;42.30;;;16.50;;
3567;SDS011;1798;48.486;9.232;2023-04-06T06:20:43;34.22;;;16.10;;
3567;SDS011;1798;48.486;9.232;2023-04-06T06:23:10;35.90;;;17.00;;
3567;SDS011;1798;48.486;9.232;2023-04-06T06:25:37;43.83;;;17.00;;
3567;SDS011;1798;48.486;9.232;2023-04-06T06:28:03;29.70;;;15.90;;
3567;SDS011;1798;48.486;9.232;2023-04-06T06:30:30;66.20;;;17.15;;
3567;SDS011;1798;48.486;9.232;2023-04-06T06:32:58;45.33;;;17.70;;
3567;SDS011;1798;48.486;9.232;2023-04-06T06:35:25;32.83;;;17.42;;
3567;SDS011;1798;48.486;9.232;2023-04-06T06:37:52;34.97;;;18.45;;
3567;SDS011;1798;48.486;9.232;2023-04-06T06:40:19;41.28;;;18.05;;
3567;SDS011;1798;48.486;9.232;2023-04-06T06:42:48;39.85;;;15.75;;
3567;SDS011;1798;48.486;9.232;2023-04-06T06:45:15;27.58;;;15.43;;
3567;SDS011;1798;48.486;9.232;2023-04-06T06:47:42;29.70;;;16.55;;
3567;SDS011;1798;48.486;9.232;2023-04-06T06:50:11;36.80;;;17.25;;
3567;SDS011;1798;48.486;9.232;2023-04-06T06:52:39;36.20;;;17.25;;
3567;SDS011;1798;48.486;9.232;2023-04-06T06:55:07;27.70;;;16.38;;
3567;SDS011;1798;48.486;9.232;2023-04-06T06:57:35;38.72;;;16.58;;
3567;SDS011;1798;48.486;9.232;2023-04-06T07:00:02;30.05;;;17.10;;
3567;SDS011;1798;48.486;9.232;2023-04-06T07:02:30;29.17;;;16.42;;
3567;SDS011;1798;48.486;9.232;2023-04-06T07:04:57;35.70;;;17.90;;
3567;SDS011;1798;48.486;9.232;2023-04-06T07:07:25;33.30;;;17.60;;
3567;SDS011;1798;48.486;9.232;2023-04-06T07:09:52;26.50;;;16.95;;
3567;SDS011;1798;48.486;9.232;2023-04-06T07:12:19;34.22;;;17.23;;
3567;SDS011;1798;48.486;9.232;2023-04-06T07:14:46;33.90;;;18.42;;
3567;SDS011;1798;48.486;9.232;2023-04-06T07:17:13;41.63;;;18.50;;
3567;SDS011;1798;48.486;9.232;2023-04-06T07:19:40;36.03;;;17.98;;
3567;SDS011;1798;48.486;9.232;2023-04-06T07:22:08;33.00;;;18.00;;
3567;SDS011;1798;48.486;9.232;2023-04-06T07:24:36;32.00;;;18.25;;
3567;SDS011;1798;48.486;9.232;2023-04-06T07:27:03;35.97;;;17.80;;
3567;SDS011;1798;48.486;9.232;2023-04-06T07:29:30;35.85;;;19.38;;
3567;SDS011;1798;48.486;9.232;2023-04-06T07:31:57;35.72;;;18.23;;
3567;SDS011;1798;48.486;9.232;2023-04-06T07:34:24;37.17;;;18.88;;
3567;SDS011;1798;48.486;9.232;2023-04-06T07:36:51;37.83;;;18.17;;
3567;SDS011;1798;48.486;9.232;2023-04-06T07:39:19;28.85;;;18.25;;
3567;SDS011;1798;48.486;9.232;2023-04-06T07:41:47;31.35;;;18.55;;
3567;SDS011;1798;48.486;9.232;2023-04-06T07:44:14;35.57;;;16.40;;
3567;SDS011;1798;48.486;9.232;2023-04-06T07:46:41;39.63;;;18.70;;
3567;SDS011;1798;48.486;9.232;2023-04-06T07:49:08;34.13;;;17.73;;
3567;SDS011;1798;48.486;9.232;2023-04-06T07:51:35;43.28;;;19.90;;
3567;SDS011;1798;48.486;9.232;2023-04-06T07:54:03;41.78;;;17.98;;
3567;SDS011;1798;48.486;9.232;2023-04-06T07:56:30;41.28;;;17.85;;
3567;SDS011;1798;48.486;9.232;2023-04-06T07:58:58;38.37;;;18.30;;
3567;SDS011;1798;48.486;9.232;2023-04-06T08:01:25;30.17;;;17.27;;
3567;SDS011;1798;48.486;9.232;2023-04-06T08:03:54;36.83;;;18.05;;
3567;SDS011;1798;48.486;9.232;2023-04-06T08:06:21;42.72;;;19.42;;
3567;SDS011;1798;48.486;9.232;2023-04-06T08:08:48;39.70;;;18.73;;
3567;SDS011;1798;48.486;9.232;2023-04-06T08:11:15;30.13;;;17.33;;
3567;SDS011;1798;48.486;9.232;2023-04-06T08:13:42;40.92;;;17.70;;
3567;SDS011;1798;48.486;9.232;2023-04-06T08:16:11;37.30;;;17.55;;
3567;SDS011;1798;48.486;9.232;2023-04-06T08:18:38;30.83;;;17.10;;
3567;SDS011;1798;48.486;9.232;2023-04-06T08:21:05;33.17;;;18.40;;
3567;SDS011;1798;48.486;9.232;2023-04-06T08:23:32;37.87;;;18.37;;
3567;SDS011;1798;48.486;9.232;2023-04-06T08:25:59;43.90;;;19.27;;
3567;SDS011;1798;48.486;9.232;2023-04-06T08:28:27;29.92;;;16.52;;
3567;SDS011;1798;48.486;9.232;2023-04-06T08:30:54;37.45;;;18.17;;
3567;SDS011;1798;48.486;9.232;2023-04-06T08:33:22;26.75;;;16.30;;
3567;SDS011;1798;48.486;9.232;2023-04-06T08:35:49;33.10;;;17.10;;
3567;SDS011;1798;48.486;9.232;2023-04-06T08:38:17;29.60;;;17.02;;
3567;SDS011;1798;48.486;9.232;2023-04-06T08:40:43;31.95;;;18.45;;
3567;SDS011;1798;48.486;9.232;2023-04-06T08:43:13;42.70;;;19.15;;
3567;SDS011;1798;48.486;9.232;2023-04-06T08:45:40;34.63;;;19.58;;
3567;SDS011;1798;48.486;9.232;2023-04-06T08:48:09;41.17;;;18.05;;
3567;SDS011;1798;48.486;9.232;2023-04-06T08:50:38;31.97;;;19.00;;
3567;SDS011;1798;48.486;9.232;2023-04-06T08:53:06;36.33;;;17.58;;
3567;SDS011;1798;48.486;9.232;2023-04-06T08:55:34;38.77;;;19.33;;
3567;SDS011;1798;48.486;9.232;2023-04-06T08:58:02;31.92;;;18.08;;
3567;SDS011;1798;48.486;9.232;2023-04-06T09:00:30;35.90;;;19.20;;
3567;SDS011;1798;48.486;9.232;2023-04-06T09:02:57;38.95;;;18.13;;
3567;SDS011;1798;48.486;9.232;2023-04-06T09:05:25;39.80;;;17.70;;
3567;SDS011;1798;48.486;9.232;2023-04-06T09:07:54;61.95;;;19.55;;
3567;SDS011;1798;48.486;9.232;2023-04-06T09:10:21;32.67;;;19.10;;
3567;SDS011;1798;48.486;9.232;2023-04-06T09:12:50;43.95;;;20.83;;
3567;SDS011;1798;48.486;9.232;2023-04-06T09:15:18;35.88;;;18.60;;
3567;SDS011;1798;48.486;9.232;2023-04-06T09:17:46;33.10;;;18.55;;
3567;SDS011;1798;48.486;9.232;2023-04-06T09:20:13;29.77;;;18.52;;
3567;SDS011;1798;48.486;9.232;2023-04-06T09:22:42;36.30;;;19.63;;
3567;SDS011;1798;48.486;9.232;2023-04-06T09:25:17;37.30;;;19.90;;
3567;SDS011;1798;48.486;9.232;2023-04-06T09:27:45;34.60;;;18.35;;
3567;SDS011;1798;48.486;9.232;2023-04-06T09:30:13;37.63;;;18.90;;
3567;SDS011;1798;48.486;9.232;2023-04-06T09:32:45;35.60;;;18.20;;
3567;SDS011;1798;48.486;9.232;2023-04-06T09:35:13;32.00;;;19.17;;
3567;SDS011;1798;48.486;9.232;2023-04-06T09:37:40;43.10;;;17.02;;
3567;SDS011;1798;48.486;9.232;2023-04-06T09:40:07;32.72;;;15.80;;
3567;SDS011;1798;48.486;9.232;2023-04-06T09:42:36;31.08;;;16.60;;
3567;SDS011;1798;48.486;9.232;2023-04-06T09:45:04;33.92;;;16.88;;
3567;SDS011;1798;48.486;9.232;2023-04-06T09:47:31;35.08;;;17.33;;
3567;SDS011;1798;48.486;9.232;2023-04-06T09:49:59;33.85;;;17.40;;
3567;SDS011;1798;48.486;9.232;2023-04-06T09:52:27;31.88;;;17.45;;
3567;SDS011;1798;48.486;9.232;2023-04-06T09:54:55;34.67;;;19.40;;
3567;SDS011;1798;48.486;9.232;2023-04-06T09:57:25;31.45;;;18.02;;
3567;SDS011;1798;48.486;9.232;2023-04-06T09:59:57;37.15;;;18.63;;
3567;SDS011;1798;48.486;9.232;2023-04-06T10:02:36;36.50;;;16.70;;
3567;SDS011;1798;48.486;9.232;2023-04-06T10:05:09;33.30;;;17.73;;
3567;SDS011;1798;48.486;9.232;2023-04-06T10:07:39;29.60;;;17.77;;
3567;SDS011;1798;48.486;9.232;2023-04-06T10:10:06;34.25;;;16.88;;
3567;SDS011;1798;48.486;9.232;2023-04-06T10:12:34;38.63;;;15.60;;
3567;SDS011;1798;48.486;9.232;2023-04-06T10:15:05;37.00;;;19.63;;
3567;SDS011;1798;48.486;9.232;2023-04-06T10:17:32;28.97;;;16.93;;
3567;SDS011;1798;48.486;9.232;2023-04-06T10:20:01;33.30;;;18.30;;
3567;SDS011;1798;48.486;9.232;2023-04-06T10:22:32;29.77;;;18.50;;
3567;SDS011;1798;48.486;9.232;2023-04-06T10:25:05;29.30;;;17.60;;
3567;SDS011;1798;48.486;9.232;2023-04-06T10:27:38;29.48;;;17.48;;
3567;SDS011;1798;48.486;9.232;2023-04-06T10:30:07;35.60;;;17.63;;
3567;SDS011;1798;48.486;9.232;2023-04-06T10:32:35;26.57;;;16.57;;
3567;SDS011;1798;48.486;9.232;2023-04-06T10:35:08;30.65;;;17.52;;
3567;SDS011;1798;48.486;9.232;2023-04-06T10:37:45;25.20;;;15.95;;
3567;SDS011;1798;48.486;9.232;2023-04-06T10:40:23;33.20;;;17.85;;
3567;SDS011;1798;48.486;9.232;2023-04-06T10:42:51;30.23;;;16.33;;
3567;SDS011;1798;48.486;9.232;2023-04-06T10:45:20;35.47;;;18.33;;
3567;SDS011;1798;48.486;9.232;2023-04-06T10:47:51;32.30;;;17.10;;
3567;SDS011;1798;48.486;9.232;2023-04-06T10:50:19;26.98;;;17.45;;
3567;SDS011;1798;48.486;9.232;2023-04-06T10:52:47;29.17;;;16.40;;
3567;SDS011;1798;48.486;9.232;2023-04-06T10:55:14;27.42;;;18.10;;
3567;SDS011;1798;48.486;9.232;2023-04-06T10:57:41;34.38;;;18.05;;
3567;SDS011;1798;48.486;9.232;2023-04-06T11:00:08;33.88;;;17.85;;
3567;SDS011;1798;48.486;9.232;2023-04-06T11:02:39;27.30;;;16.70;;
3567;SDS011;1798;48.486;9.232;2023-04-06T11:05:07;30.50;;;18.52;;
3567;SDS011;1798;48.486;9.232;2023-04-06T11:07:34;31.48;;;18.10;;
3567;SDS011;1798;48.486;9.232;2023-04-06T11:10:01;38.50;;;18.80;;
3567;SDS011;1798;48.486;9.232;2023-04-06T11:12:28;26.15;;;12.27;;
3567;SDS011;1798;48.486;9.232;2023-04-06T11:14:56;23.20;;;13.85;;
3567;SDS011;1798;48.486;9.232;2023-04-06T11:17:29;30.60;;;17.77;;
3567;SDS011;1798;48.486;9.232;2023-04-06T11:20:09;32.58;;;19.10;;
3567;SDS011;1798;48.486;9.232;2023-04-06T11:25:13;29.98;;;16.80;;
3567;SDS011;1798;48.486;9.232;2023-04-06T11:27:42;29.85;;;16.88;;
3567;SDS011;1798;48.486;9.232;2023-04-06T11:30:09;29.70;;;15.23;;
3567;SDS011;1798;48.486;9.232;2023-04-06T11:40:24;33.30;;;16.40;;
3567;SDS011;1798;48.486;9.232;2023-04-06T11:42:53;35.03;;;15.82;;
3567;SDS011;1798;48.486;9.232;2023-04-06T11:45:20;25.08;;;14.48;;
3567;SDS011;1798;48.486;9.232;2023-04-06T11:47:55;23.47;;;13.57;;
3567;SDS011;1798;48.486;9.232;2023-04-06T12:00:44;25.48;;;14.23;;
3567;SDS011;1798;48.486;9.232;2023-04-06T12:03:11;24.90;;;14.50;;
3567;SDS011;1798;48.486;9.232;2023-04-06T12:05:39;25.17;;;16.00;;
3567;SDS011;1798;48.486;9.232;2023-04-06T12:08:06;25.55;;;13.80;;
3567;SDS011;1798;48.486;9.232;2023-04-06T12:10:36;25.67;;;14.90;;
3567;SDS011;1798;48.486;9.232;2023-04-06T12:13:05;22.83;;;14.55;;
3567;SDS011;1798;48.486;9.232;2023-04-06T12:15:42;23.83;;;14.77;;
3567;SDS011;1798;48.486;9.232;2023-04-06T12:18:13;23.63;;;14.43;;
3567;SDS011;1798;48.486;9.232;2023-04-06T12:20:41;23.58;;;13.80;;
3567;SDS011;1798;48.486;9.232;2023-04-06T12:23:08;27.07;;;14.87;;
3567;SDS011;1798;48.486;9.232;2023-04-06T12:25:36;22.98;;;13.38;;
3567;SDS011;1798;48.486;9.232;2023-04-06T12:28:10;22.15;;;13.88;;
3567;SDS011;1798;48.486;9.232;2023-04-06T12:30:37;25.05;;;14.68;;
3567;SDS011;1798;48.486;9.232;2023-04-06T12:33:06;23.33;;;14.48;;
3567;SDS011;1798;48.486;9.232;2023-04-06T12:35:37;23.25;;;12.82;;
3567;SDS011;1798;48.486;9.232;2023-04-06T12:38:07;26.50;;;14.05;;
3567;SDS011;1798;48.486;9.232;2023-04-06T12:40:39;21.88;;;13.40;;
3567;SDS011;1798;48.486;9.232;2023-04-06T12:43:09;28.50;;;14.40;;
3567;SDS011;1798;48.486;9.232;2023-04-06T12:45:40;24.55;;;13.00;;
3567;SDS011;1798;48.486;9.232;2023-04-06T12:48:12;23.27;;;13.27;;
3567;SDS011;1798;48.486;9.232;2023-04-06T12:53:18;20.25;;;12.73;;
3567;SDS011;1798;48.486;9.232;2023-04-06T12:55:45;19.88;;;12.70;;
3567;SDS011;1798;48.486;9.232;2023-04-06T12:58:12;18.73;;;12.38;;
3567;SDS011;1798;48.486;9.232;2023-04-06T13:00:39;22.50;;;13.02;;
3567;SDS011;1798;48.486;9.232;2023-04-06T13:05:35;23.40;;;13.10;;
3567;SDS011;1798;48.486;9.232;2023-04-06T13:08:01;23.08;;;13.20;;
3567;SDS011;1798;48.486;9.232;2023-04-06T13:10:30;23.55;;;13.15;;
3567;SDS011;1798;48.486;9.232;2023-04-06T13:12:56;23.00;;;12.75;;
3567;SDS011;1798;48.486;9.232;2023-04-06T13:15:23;23.92;;;13.38;;
3567;SDS011;1798;48.486;9.232;2023-04-06T13:17:50;21.25;;;12.32;;
3567;SDS011;1798;48.486;9.232;2023-04-06T13:20:18;20.85;;;12.90;;
3567;SDS011;1798;48.486;9.232;2023-04-06T13:22:55;22.33;;;12.30;;
3567;SDS011;1798;48.486;9.232;2023-04-06T13:25:22;29.05;;;12.43;;
3567;SDS011;1798;48.486;9.232;2023-04-06T13:27:50;22.65;;;12.70;;
3567;SDS011;1798;48.486;9.232;2023-04-06T13:30:17;21.00;;;10.57;;
3567;SDS011;1798;48.486;9.232;2023-04-06T13:32:43;19.75;;;10.65;;
3567;SDS011;1798;48.486;9.232;2023-04-06T13:35:10;21.40;;;11.10;;
3567;SDS011;1798;48.486;9.232;2023-04-06T13:37:40;19.08;;;10.85;;
3567;SDS011;1798;48.486;9.232;2023-04-06T13:40:07;19.15;;;9.60;;
3567;SDS011;1798;48.486;9.232;2023-04-06T13:42:35;19.45;;;10.75;;
3567;SDS011;1798;48.486;9.232;2023-04-06T13:45:05;19.00;;;10.10;;
3567;SDS011;1798;48.486;9.232;2023-04-06T13:47:32;18.42;;;9.15;;
3567;SDS011;1798;48.486;9.232;2023-04-06T13:50:00;20.20;;;9.50;;
3567;SDS011;1798;48.486;9.232;2023-04-06T13:52:28;19.83;;;10.07;;
3567;SDS011;1798;48.486;9.232;2023-04-06T13:54:55;17.50;;;10.13;;
3567;SDS011;1798;48.486;9.232;2023-04-06T13:57:22;20.17;;;10.75;;
3567;SDS011;1798;48.486;9.232;2023-04-06T13:59:49;18.27;;;10.00;;
3567;SDS011;1798;48.486;9.232;2023-04-06T14:02:17;22.98;;;10.20;;
3567;SDS011;1798;48.486;9.232;2023-04-06T14:04:44;20.45;;;10.70;;
3567;SDS011;1798;48.486;9.232;2023-04-06T14:07:11;21.92;;;9.75;;
3567;SDS011;1798;48.486;9.232;2023-04-06T14:09:38;20.13;;;10.70;;
3567;SDS011;1798;48.486;9.232;2023-04-06T14:12:05;18.20;;;10.07;;
3567;SDS011;1798;48.486;9.232;2023-04-06T14:14:32;19.63;;;9.80;;
3567;SDS011;1798;48.486;9.232;2023-04-06T14:16:58;14.32;;;8.35;;
3567;SDS011;1798;48.486;9.232;2023-04-06T14:19:26;19.17;;;9.95;;
3567;SDS011;1798;48.486;9.232;2023-04-06T14:21:53;15.98;;;9.07;;
3567;SDS011;1798;48.486;9.232;2023-04-06T14:24:21;20.85;;;10.77;;
3567;SDS011;1798;48.486;9.232;2023-04-06T14:26:48;20.33;;;9.50;;
3567;SDS011;1798;48.486;9.232;2023-04-06T14:29:14;21.92;;;10.27;;
3567;SDS011;1798;48.486;9.232;2023-04-06T14:31:42;16.70;;;9.60;;
3567;SDS011;1798;48.486;9.232;2023-04-06T14:34:09;15.60;;;9.23;;
3567;SDS011;1798;48.486;9.232;2023-04-06T14:36:37;18.33;;;10.50;;
3567;SDS011;1798;48.486;9.232;2023-04-06T14:39:04;16.23;;;9.52;;
3567;SDS011;1798;48.486;9.232;2023-04-06T14:41:31;19.65;;;9.80;;
3567;SDS011;1798;48.486;9.232;2023-04-06T14:43:58;19.40;;;9.50;;
3567;SDS011;1798;48.486;9.232;2023-04-06T14:46:25;18.13;;;9.10;;
3567;SDS011;1798;48.486;9.232;2023-04-06T14:48:53;17.23;;;9.13;;
3567;SDS011;1798;48.486;9.232;2023-04-06T14:51:21;28.45;;;8.60;;
3567;SDS011;1798;48.486;9.232;2023-04-06T14:56:19;34.60;;;9.30;;
3567;SDS011;1798;48.486;9.232;2023-04-06T14:58:47;31.63;;;8.25;;
3567;SDS011;1798;48.486;9.232;2023-04-06T15:01:14;19.80;;;9.23;;
3567;SDS011;1798;48.486;9.232;2023-04-06T15:03:45;15.77;;;8.48;;
3567;SDS011;1798;48.486;9.232;2023-04-06T15:06:18;15.45;;;8.40;;
3567;SDS011;1798;48.486;9.232;2023-04-06T15:11:19;15.97;;;8.60;;
3567;SDS011;1798;48.486;9.232;2023-04-06T15:13:46;22.53;;;8.50;;
3567;SDS011;1798;48.486;9.232;2023-04-06T15:18:54;15.40;;;8.30;;
3567;SDS011;1798;48.486;9.232;2023-04-06T15:21:21;22.98;;;7.60;;
3567;SDS011;1798;48.486;9.232;2023-04-06T15:23:48;15.65;;;8.20;;